createdAt,value
2022-09-10T00:00:00.170Z,1017.67
2022-09-10T00:10:00.160Z,1017.77
2022-09-10T00:20:00.146Z,1017.79
2022-09-10T00:30:00.997Z,1017.79
2022-09-10T00:40:00.262Z,1017.74
2022-09-10T00:50:00.140Z,1017.67
2022-09-10T01:00:00.216Z,1017.71
2022-09-10T01:10:01.172Z,1017.73
2022-09-10T01:20:00.158Z,1017.77
2022-09-10T01:30:00.123Z,1017.78
2022-09-10T01:40:00.261Z,1017.82
2022-09-10T01:50:00.143Z,1017.79
2022-09-10T02:00:00.161Z,1017.72
2022-09-10T02:10:00.134Z,1017.72
2022-09-10T02:20:00.141Z,1017.78
2022-09-10T02:30:00.206Z,1017.72
2022-09-10T02:40:00.271Z,1017.91
2022-09-10T02:50:00.144Z,1017.95
2022-09-10T03:00:00.162Z,1017.91
2022-09-10T03:10:00.135Z,1017.87
2022-09-10T03:20:00.144Z,1018.00
2022-09-10T03:30:00.164Z,1018.01
2022-09-10T03:40:00.245Z,1017.93
2022-09-10T03:50:00.138Z,1017.87
2022-09-10T04:00:00.307Z,1017.89
2022-09-10T04:10:01.065Z,1017.89
2022-09-10T04:20:00.175Z,1017.92
2022-09-10T04:30:00.137Z,1017.97
2022-09-10T04:40:00.283Z,1017.97
2022-09-10T04:50:00.161Z,1017.98
2022-09-10T05:00:00.204Z,1018.02
2022-09-10T05:10:00.137Z,1018.08
2022-09-10T05:20:00.194Z,1018.10
2022-09-10T05:30:00.143Z,1018.06
2022-09-10T05:40:00.243Z,1018.08
2022-09-10T05:50:00.198Z,1017.97
2022-09-10T06:00:00.145Z,1017.97
2022-09-10T06:10:00.199Z,1017.90
2022-09-10T06:20:01.033Z,1017.97
2022-09-10T06:30:00.177Z,1018.06
2022-09-10T06:40:00.239Z,1017.94
2022-09-10T06:50:00.193Z,1017.94
2022-09-10T07:00:00.151Z,1017.95
2022-09-10T07:10:00.205Z,1017.90
2022-09-10T07:20:00.159Z,1017.85
2022-09-10T07:30:00.170Z,1017.80
2022-09-10T07:40:00.275Z,1017.80
2022-09-10T07:50:00.160Z,1017.89
2022-09-10T08:00:01.282Z,1017.84
2022-09-10T08:10:00.164Z,1017.90
2022-09-10T08:20:01.291Z,1017.95
2022-09-10T08:30:00.125Z,1018.01
2022-09-10T08:40:00.270Z,1017.96
2022-09-10T08:50:00.146Z,1018.01
2022-09-10T09:00:00.165Z,1017.97
2022-09-10T09:10:00.170Z,1018.04
2022-09-10T09:20:00.153Z,1018.02
2022-09-10T09:30:00.150Z,1017.91
2022-09-10T09:40:00.313Z,1017.91
2022-09-10T09:50:00.146Z,1017.90
2022-09-10T10:00:00.138Z,1017.85
2022-09-10T10:10:00.160Z,1017.69
2022-09-10T10:20:00.164Z,1017.69
2022-09-10T10:30:00.172Z,1017.66
2022-09-10T10:40:00.236Z,1017.74
2022-09-10T10:50:00.147Z,1017.55
2022-09-10T11:00:00.140Z,1017.52
2022-09-10T11:10:00.129Z,1017.62
2022-09-10T11:20:24.520Z,1017.49
2022-09-10T11:30:00.137Z,1017.48
2022-09-10T11:40:00.258Z,1017.46
2022-09-10T11:50:00.122Z,1017.38
2022-09-10T12:00:00.158Z,1017.26
2022-09-10T12:10:00.094Z,1017.24
2022-09-10T12:20:00.138Z,1017.11
2022-09-10T12:30:00.960Z,1017.06
2022-09-10T12:40:00.207Z,1017.00
2022-09-10T12:50:00.145Z,1017.01
2022-09-10T13:00:00.163Z,1016.96
2022-09-10T13:10:00.177Z,1016.88
2022-09-10T13:20:00.226Z,1016.78
2022-09-10T13:30:00.262Z,1016.79
2022-09-10T13:40:00.402Z,1016.77
2022-09-10T13:50:00.232Z,1016.70
2022-09-10T14:00:00.247Z,1016.67
2022-09-10T14:10:00.248Z,1016.77
2022-09-10T14:20:00.257Z,1016.78
2022-09-10T14:30:00.249Z,1016.97
2022-09-10T14:40:00.324Z,1016.93
2022-09-10T14:50:02.311Z,1016.92
2022-09-10T15:00:00.263Z,1016.91
2022-09-10T15:10:00.155Z,1016.72
2022-09-10T15:20:00.992Z,1016.86
2022-09-10T15:30:00.963Z,1016.91
2022-09-10T15:40:00.234Z,1016.86
2022-09-10T15:50:00.176Z,1016.87
2022-09-10T16:00:00.184Z,1016.96
2022-09-10T16:10:04.790Z,1016.94
2022-09-10T16:20:00.179Z,1017.00
2022-09-10T16:30:00.136Z,1017.04
2022-09-10T16:40:00.238Z,1017.11
2022-09-10T16:50:00.178Z,1017.27
2022-09-10T17:00:00.184Z,1017.48
2022-09-10T17:10:00.975Z,1017.45
2022-09-10T17:20:01.267Z,1017.40
2022-09-10T17:30:00.131Z,1017.53
2022-09-10T17:40:00.185Z,1017.61
2022-09-10T17:50:00.131Z,1017.75
2022-09-10T18:00:00.149Z,1017.83
2022-09-10T18:10:00.154Z,1017.86
2022-09-10T18:20:00.142Z,1017.91
2022-09-10T18:30:00.138Z,1018.12
2022-09-10T18:40:00.273Z,1018.11
2022-09-10T18:50:00.156Z,1018.15
2022-09-10T19:00:00.156Z,1018.11
2022-09-10T19:10:00.168Z,1018.07
2022-09-10T19:20:00.142Z,1018.00
2022-09-10T19:30:00.151Z,1017.97
2022-09-10T19:40:02.039Z,1017.89
2022-09-10T19:50:00.170Z,1017.92
2022-09-10T20:00:00.172Z,1017.95
2022-09-10T20:10:00.175Z,1018.03
2022-09-10T20:20:00.171Z,1018.05
2022-09-10T20:30:00.184Z,1018.15
2022-09-10T20:40:00.252Z,1018.24
2022-09-10T20:50:00.150Z,1018.17
2022-09-10T21:00:00.161Z,1018.22
2022-09-10T21:10:01.210Z,1018.27
2022-09-10T21:20:00.158Z,1018.34
2022-09-10T21:30:00.126Z,1018.45
2022-09-10T21:40:00.409Z,1018.52
2022-09-10T21:50:00.155Z,1018.64
2022-09-10T22:00:00.220Z,1018.69
2022-09-10T22:10:00.198Z,1018.80
2022-09-10T22:20:00.160Z,1018.91
2022-09-10T22:30:00.141Z,1019.05
2022-09-10T22:40:00.257Z,1019.02
2022-09-10T22:50:00.142Z,1019.06
2022-09-10T23:00:00.167Z,1019.16
2022-09-10T23:10:00.135Z,1019.38
2022-09-10T23:20:00.155Z,1019.38
2022-09-10T23:30:00.145Z,1019.47
2022-09-10T23:40:00.253Z,1019.52
2022-09-10T23:50:00.117Z,1019.52
